createdAt,value
2022-09-29T00:02:19.512Z,0.45
2022-09-29T00:05:10.237Z,0.65
2022-09-29T00:07:58.889Z,0.63
2022-09-29T00:10:47.513Z,0.68
2022-09-29T00:13:36.067Z,0.52
2022-09-29T00:16:24.584Z,0.57
2022-09-29T00:19:13.071Z,0.50
2022-09-29T00:22:02.857Z,0.70
2022-09-29T00:24:51.548Z,0.73
2022-09-29T00:27:39.944Z,0.50
2022-09-29T00:30:29.189Z,0.50
2022-09-29T00:33:17.608Z,0.52
2022-09-29T00:36:08.277Z,0.38
2022-09-29T00:38:59.063Z,0.40
2022-09-29T00:41:47.526Z,0.50
2022-09-29T00:45:01.645Z,0.30
2022-09-29T00:47:55.194Z,0.60
2022-09-29T00:50:46.182Z,0.47
2022-09-29T00:53:35.093Z,0.30
2022-09-29T00:56:25.309Z,0.40
2022-09-29T00:59:16.293Z,0.40
2022-09-29T01:02:06.234Z,0.20
2022-09-29T01:04:55.695Z,0.30
2022-09-29T01:07:46.242Z,0.30
2022-09-29T01:10:36.002Z,0.30
2022-09-29T01:13:26.519Z,0.30
2022-09-29T01:16:15.035Z,0.40
2022-09-29T01:19:08.493Z,0.52
2022-09-29T01:22:11.146Z,0.45
2022-09-29T01:25:04.618Z,0.20
2022-09-29T01:28:16.283Z,0.40
2022-09-29T01:31:14.876Z,0.40
2022-09-29T01:34:08.048Z,0.40
2022-09-29T01:37:02.432Z,0.47
2022-09-29T01:39:56.571Z,0.30
2022-09-29T01:42:49.550Z,0.40
2022-09-29T01:45:40.794Z,0.30
2022-09-29T01:48:33.138Z,0.20
2022-09-29T01:51:24.115Z,0.47
2022-09-29T01:54:16.229Z,0.20
2022-09-29T01:57:09.543Z,0.30
2022-09-29T02:00:00.733Z,0.30
2022-09-29T02:02:52.098Z,0.20
2022-09-29T02:05:45.917Z,0.20
2022-09-29T02:08:39.235Z,0.20
2022-09-29T02:11:29.009Z,0.30
2022-09-29T02:14:18.769Z,0.30
2022-09-29T02:17:09.864Z,0.20
2022-09-29T02:19:58.427Z,0.43
2022-09-29T02:22:48.507Z,0.25
2022-09-29T02:25:38.297Z,0.30
2022-09-29T02:28:27.444Z,0.20
2022-09-29T02:31:16.310Z,0.17
2022-09-29T02:34:06.094Z,0.30
2022-09-29T02:36:59.663Z,0.25
2022-09-29T02:39:56.050Z,0.20
2022-09-29T02:42:54.286Z,0.40
2022-09-29T02:45:51.457Z,0.28
2022-09-29T02:48:57.226Z,0.10
2022-09-29T02:51:48.617Z,0.28
2022-09-29T02:54:47.985Z,0.30
2022-09-29T02:57:45.272Z,0.10
2022-09-29T03:00:33.904Z,0.20
2022-09-29T03:03:24.711Z,0.20
2022-09-29T03:06:13.503Z,0.20
2022-09-29T03:09:02.042Z,0.20
2022-09-29T03:11:50.477Z,0.20
2022-09-29T03:14:40.371Z,0.20
2022-09-29T03:17:28.930Z,0.20
2022-09-29T03:20:17.467Z,0.10
2022-09-29T03:23:06.149Z,0.17
2022-09-29T03:25:54.857Z,0.08
2022-09-29T03:28:43.532Z,0.13
2022-09-29T03:31:33.455Z,0.20
2022-09-29T03:34:21.991Z,0.17
2022-09-29T03:37:10.450Z,0.38
2022-09-29T03:39:59.922Z,0.20
2022-09-29T03:42:48.453Z,0.10
2022-09-29T03:45:37.007Z,0.10
2022-09-29T03:48:31.125Z,0.20
2022-09-29T03:51:19.624Z,0.30
2022-09-29T03:54:09.594Z,0.15
2022-09-29T03:56:58.036Z,0.10
2022-09-29T03:59:47.532Z,0.15
2022-09-29T04:02:36.366Z,0.30
2022-09-29T04:05:27.496Z,0.10
2022-09-29T04:08:16.568Z,0.20
2022-09-29T04:11:05.394Z,0.30
2022-09-29T04:13:53.990Z,0.10
2022-09-29T04:16:42.463Z,0.10
2022-09-29T04:19:30.993Z,0.15
2022-09-29T04:22:21.616Z,0.10
2022-09-29T04:25:10.797Z,0.25
2022-09-29T04:27:59.313Z,0.30
2022-09-29T04:30:47.830Z,0.22
2022-09-29T04:33:41.601Z,0.40
2022-09-29T04:36:30.084Z,0.20
2022-09-29T04:39:20.087Z,0.15
2022-09-29T04:42:10.872Z,0.30
2022-09-29T04:44:59.368Z,0.65
2022-09-29T04:47:47.850Z,0.17
2022-09-29T04:50:36.629Z,0.30
2022-09-29T04:53:25.143Z,0.73
2022-09-29T04:56:15.901Z,0.85
2022-09-29T04:59:04.343Z,0.70
2022-09-29T05:01:55.301Z,0.90
2022-09-29T05:04:43.796Z,0.80
2022-09-29T05:07:33.445Z,1.30
2022-09-29T05:10:22.261Z,0.70
2022-09-29T05:13:12.130Z,0.80
2022-09-29T05:16:01.109Z,0.70
2022-09-29T05:18:49.744Z,1.05
2022-09-29T05:21:38.185Z,0.60
2022-09-29T05:24:29.089Z,0.80
2022-09-29T05:27:19.659Z,1.13
2022-09-29T05:30:10.668Z,0.90
2022-09-29T05:32:59.317Z,0.90
2022-09-29T05:35:47.835Z,0.70
2022-09-29T05:38:36.692Z,0.60
2022-09-29T05:41:25.525Z,0.60
2022-09-29T05:44:15.976Z,0.77
2022-09-29T05:47:07.145Z,0.73
2022-09-29T05:49:55.672Z,0.40
2022-09-29T05:52:44.087Z,0.50
2022-09-29T05:55:32.571Z,0.85
2022-09-29T05:58:21.029Z,1.48
2022-09-29T06:01:09.964Z,0.88
2022-09-29T06:03:59.983Z,0.82
2022-09-29T06:06:48.565Z,0.35
2022-09-29T06:09:37.024Z,0.55
2022-09-29T06:12:25.774Z,0.47
2022-09-29T06:15:14.317Z,0.45
2022-09-29T06:18:02.847Z,0.73
2022-09-29T06:20:52.740Z,0.60
2022-09-29T06:23:41.605Z,0.40
2022-09-29T06:26:30.466Z,0.55
2022-09-29T06:29:19.041Z,0.57
2022-09-29T06:32:07.717Z,0.45
2022-09-29T06:35:14.060Z,0.40
2022-09-29T06:38:04.014Z,0.40
2022-09-29T06:40:52.543Z,0.10
2022-09-29T06:43:41.103Z,0.30
2022-09-29T06:46:29.669Z,0.30
2022-09-29T06:49:18.748Z,0.38
2022-09-29T06:52:18.462Z,0.30
2022-09-29T06:55:10.392Z,0.25
2022-09-29T06:58:04.097Z,0.52
2022-09-29T07:00:53.484Z,0.40
2022-09-29T07:03:42.299Z,0.22
2022-09-29T07:06:31.328Z,0.40
2022-09-29T07:09:20.728Z,0.30
2022-09-29T07:12:11.557Z,0.30
2022-09-29T07:14:59.941Z,0.30
2022-09-29T07:17:48.688Z,0.30
2022-09-29T07:20:37.476Z,0.30
2022-09-29T07:23:26.905Z,0.57
2022-09-29T07:26:17.020Z,0.40
2022-09-29T07:29:10.220Z,0.20
2022-09-29T07:32:01.358Z,0.10
2022-09-29T07:34:49.869Z,0.17
2022-09-29T07:37:38.581Z,0.20
2022-09-29T07:40:28.188Z,0.10
2022-09-29T07:43:16.845Z,0.20
2022-09-29T07:46:07.814Z,0.25
2022-09-29T07:48:56.323Z,0.20
2022-09-29T07:51:44.997Z,0.20
2022-09-29T07:54:33.522Z,0.20
2022-09-29T07:57:21.953Z,0.10
2022-09-29T08:00:11.850Z,0.35
2022-09-29T08:03:06.819Z,0.20
2022-09-29T08:05:55.332Z,0.17
2022-09-29T08:08:56.826Z,0.10
2022-09-29T08:11:50.845Z,0.20
2022-09-29T08:14:43.957Z,0.20
2022-09-29T08:17:34.901Z,0.17
2022-09-29T08:20:26.443Z,0.10
2022-09-29T08:23:15.133Z,0.10
2022-09-29T08:26:04.354Z,0.17
2022-09-29T08:29:05.126Z,0.10
2022-09-29T08:31:56.833Z,0.20
2022-09-29T08:34:45.577Z,0.20
2022-09-29T08:37:35.594Z,0.30
2022-09-29T08:40:24.161Z,0.20
2022-09-29T08:43:28.644Z,0.10
2022-09-29T08:46:34.748Z,0.22
2022-09-29T08:49:32.849Z,0.10
2022-09-29T08:52:24.903Z,0.10
2022-09-29T08:55:25.752Z,0.15
2022-09-29T08:58:17.026Z,0.10
2022-09-29T09:01:14.706Z,0.20
2022-09-29T09:04:31.752Z,0.13
2022-09-29T09:07:22.927Z,0.00
2022-09-29T09:10:25.848Z,0.10
2022-09-29T09:13:36.175Z,0.20
2022-09-29T09:16:33.299Z,0.13
2022-09-29T09:19:34.826Z,0.35
2022-09-29T09:22:24.710Z,0.08
2022-09-29T09:25:21.686Z,0.10
2022-09-29T09:28:16.495Z,0.20
2022-09-29T09:31:12.866Z,0.10
2022-09-29T09:34:06.788Z,0.20
2022-09-29T09:37:07.837Z,0.10
2022-09-29T09:40:01.152Z,0.15
2022-09-29T09:42:53.809Z,0.00
2022-09-29T09:45:49.025Z,0.10
2022-09-29T09:48:40.532Z,0.10
2022-09-29T09:51:39.249Z,0.10
2022-09-29T09:54:32.458Z,0.10
2022-09-29T09:57:56.239Z,0.00
2022-09-29T10:00:48.996Z,0.10
2022-09-29T10:03:38.179Z,0.10
2022-09-29T10:06:26.758Z,0.03
2022-09-29T10:09:16.451Z,0.10
2022-09-29T10:12:05.152Z,0.10
2022-09-29T10:14:55.637Z,0.10
2022-09-29T10:17:48.226Z,0.03
2022-09-29T10:20:38.313Z,0.13
2022-09-29T10:23:32.700Z,0.08
2022-09-29T10:26:25.964Z,0.00
2022-09-29T10:29:25.771Z,0.10
2022-09-29T10:32:17.052Z,0.00
2022-09-29T10:35:18.641Z,0.10
2022-09-29T10:38:09.957Z,0.10
2022-09-29T10:41:01.280Z,0.08
2022-09-29T10:43:52.926Z,0.00
2022-09-29T10:46:50.710Z,0.10
2022-09-29T10:49:39.221Z,0.00
2022-09-29T10:52:30.239Z,0.10
2022-09-29T10:55:21.386Z,0.08
2022-09-29T10:58:44.140Z,0.00
2022-09-29T11:01:33.118Z,0.00
2022-09-29T11:04:24.780Z,0.00
2022-09-29T11:07:14.093Z,0.10
2022-09-29T11:10:03.907Z,0.00
2022-09-29T11:12:52.505Z,0.00
2022-09-29T11:15:42.210Z,0.00
2022-09-29T11:18:34.661Z,0.10
2022-09-29T11:21:47.088Z,0.10
2022-09-29T11:24:58.520Z,0.10
2022-09-29T11:28:10.817Z,0.05
2022-09-29T11:31:11.912Z,0.10
2022-09-29T11:34:13.507Z,0.03
2022-09-29T11:37:13.314Z,0.10
2022-09-29T11:40:05.234Z,0.00
2022-09-29T11:43:06.986Z,0.00
2022-09-29T11:46:04.298Z,0.00
2022-09-29T11:49:37.078Z,0.00
2022-09-29T11:52:48.277Z,0.10
2022-09-29T11:55:50.345Z,0.10
2022-09-29T11:58:54.179Z,0.20
2022-09-29T12:01:56.725Z,0.05
2022-09-29T12:04:55.160Z,0.00
2022-09-29T12:07:52.563Z,0.10
2022-09-29T12:10:48.764Z,0.10
2022-09-29T12:13:44.749Z,0.00
2022-09-29T12:16:35.895Z,0.10
2022-09-29T12:19:29.026Z,0.20
2022-09-29T12:22:20.216Z,0.00
2022-09-29T12:25:15.219Z,0.03
2022-09-29T12:28:07.761Z,0.00
2022-09-29T12:31:02.392Z,0.10
2022-09-29T12:33:52.988Z,0.00
2022-09-29T12:36:50.257Z,0.00
2022-09-29T12:39:43.808Z,0.00
2022-09-29T12:42:45.142Z,0.00
2022-09-29T12:45:37.377Z,0.00
2022-09-29T12:48:37.079Z,0.10
2022-09-29T12:51:30.299Z,0.00
2022-09-29T12:54:22.920Z,0.00
2022-09-29T12:57:15.147Z,0.00
2022-09-29T13:00:08.280Z,0.00
2022-09-29T13:03:31.606Z,0.00
2022-09-29T13:06:36.332Z,0.03
2022-09-29T13:09:37.358Z,0.10
2022-09-29T13:12:37.071Z,0.00
2022-09-29T13:15:45.267Z,0.00
2022-09-29T13:19:06.877Z,0.10
2022-09-29T13:22:22.322Z,0.00
2022-09-29T13:25:19.146Z,0.10
2022-09-29T13:28:25.689Z,0.20
2022-09-29T13:31:16.916Z,0.20
2022-09-29T13:34:06.314Z,0.10
2022-09-29T13:36:54.943Z,0.20
2022-09-29T13:39:46.194Z,0.20
2022-09-29T13:42:44.293Z,0.20
2022-09-29T13:45:44.896Z,0.60
2022-09-29T13:48:49.878Z,0.40
2022-09-29T13:51:49.965Z,0.52
2022-09-29T13:54:41.312Z,0.57
2022-09-29T13:57:31.363Z,0.70
2022-09-29T14:00:21.978Z,0.63
2022-09-29T14:03:30.887Z,0.65
2022-09-29T14:06:40.219Z,0.65
2022-09-29T14:09:33.401Z,0.47
2022-09-29T14:12:23.821Z,0.40
2022-09-29T14:15:18.723Z,0.40
2022-09-29T14:18:16.404Z,0.30
2022-09-29T14:21:06.867Z,0.40
2022-09-29T14:23:56.473Z,0.30
2022-09-29T14:26:46.865Z,0.38
2022-09-29T14:29:37.053Z,0.70
2022-09-29T14:32:34.401Z,0.47
2022-09-29T14:35:27.301Z,0.68
2022-09-29T14:38:17.890Z,0.80
2022-09-29T14:41:21.764Z,0.70
2022-09-29T14:44:12.971Z,0.75
2022-09-29T14:47:31.811Z,1.10
2022-09-29T14:50:49.399Z,1.40
2022-09-29T14:53:52.644Z,4.82
2022-09-29T14:56:52.943Z,13.68
2022-09-29T14:59:54.055Z,4.30
2022-09-29T15:02:45.009Z,2.22
2022-09-29T15:05:36.133Z,1.40
2022-09-29T15:08:31.161Z,1.08
2022-09-29T15:11:26.734Z,0.93
2022-09-29T15:14:24.879Z,0.88
2022-09-29T15:17:19.781Z,1.13
2022-09-29T15:20:15.191Z,3.17
2022-09-29T15:23:36.146Z,1.20
2022-09-29T15:26:25.829Z,1.63
2022-09-29T15:29:18.130Z,1.48
2022-09-29T15:32:17.852Z,1.75
2022-09-29T15:35:08.175Z,1.25
2022-09-29T15:37:59.574Z,1.58
2022-09-29T15:40:54.583Z,0.70
2022-09-29T15:43:45.043Z,0.65
2022-09-29T15:46:39.201Z,0.93
2022-09-29T15:49:29.296Z,1.30
2022-09-29T15:52:18.835Z,0.80
2022-09-29T15:55:07.875Z,1.17
2022-09-29T15:57:58.056Z,1.05
2022-09-29T16:00:48.479Z,0.90
2022-09-29T16:03:40.978Z,0.60
2022-09-29T16:06:32.327Z,0.82
2022-09-29T16:09:21.881Z,1.20
2022-09-29T16:12:10.467Z,0.90
2022-09-29T16:15:00.843Z,0.65
2022-09-29T16:17:49.988Z,0.50
2022-09-29T16:20:38.719Z,1.10
2022-09-29T16:23:29.355Z,1.33
2022-09-29T16:26:20.310Z,1.05
2022-09-29T16:29:28.315Z,0.95
2022-09-29T16:32:42.575Z,0.90
2022-09-29T16:35:40.589Z,0.70
2022-09-29T16:38:35.704Z,0.80
2022-09-29T16:41:34.190Z,0.95
2022-09-29T16:44:27.576Z,0.60
2022-09-29T16:47:17.134Z,0.98
2022-09-29T16:50:14.393Z,0.85
2022-09-29T16:53:03.091Z,0.73
2022-09-29T16:55:59.073Z,0.77
2022-09-29T16:58:48.516Z,0.90
2022-09-29T17:01:37.069Z,1.00
2022-09-29T17:04:25.761Z,0.85
2022-09-29T17:07:16.907Z,1.27
2022-09-29T17:10:07.489Z,0.93
2022-09-29T17:12:56.252Z,1.50
2022-09-29T17:15:46.883Z,1.20
2022-09-29T17:18:35.417Z,1.15
2022-09-29T17:21:23.906Z,0.70
2022-09-29T17:24:13.680Z,0.95
2022-09-29T17:27:19.763Z,1.27
2022-09-29T17:30:09.413Z,1.00
2022-09-29T17:32:59.038Z,0.95
2022-09-29T17:35:55.226Z,1.10
2022-09-29T17:38:46.302Z,1.05
2022-09-29T17:41:36.252Z,1.40
2022-09-29T17:44:24.962Z,1.35
2022-09-29T17:47:35.068Z,1.35
2022-09-29T17:50:26.242Z,1.17
2022-09-29T17:53:16.611Z,1.50
2022-09-29T17:56:05.344Z,1.35
2022-09-29T17:58:55.731Z,1.38
2022-09-29T18:01:44.219Z,1.88
2022-09-29T18:04:34.414Z,1.58
2022-09-29T18:07:22.850Z,1.42
2022-09-29T18:10:21.175Z,1.23
2022-09-29T18:13:09.648Z,1.80
2022-09-29T18:16:00.103Z,1.58
2022-09-29T18:18:49.282Z,1.25
2022-09-29T18:21:38.131Z,1.30
2022-09-29T18:24:26.562Z,1.58
2022-09-29T18:27:15.098Z,0.95
2022-09-29T18:30:03.596Z,1.40
2022-09-29T18:32:55.296Z,1.67
2022-09-29T18:35:45.139Z,1.58
2022-09-29T18:38:33.619Z,1.30
2022-09-29T18:41:23.142Z,1.00
2022-09-29T18:44:14.132Z,1.55
2022-09-29T18:47:02.621Z,1.10
2022-09-29T18:49:52.418Z,1.10
2022-09-29T18:52:40.888Z,1.02
2022-09-29T18:55:30.579Z,1.00
2022-09-29T18:58:20.182Z,1.33
2022-09-29T19:01:14.048Z,1.00
2022-09-29T19:04:02.898Z,1.08
2022-09-29T19:06:52.812Z,1.20
2022-09-29T19:09:41.308Z,0.98
2022-09-29T19:12:31.634Z,1.05
2022-09-29T19:15:21.974Z,1.02
2022-09-29T19:18:11.683Z,0.80
2022-09-29T19:21:00.685Z,0.82
2022-09-29T19:23:50.803Z,0.80
2022-09-29T19:26:40.064Z,0.70
2022-09-29T19:29:28.689Z,0.80
2022-09-29T19:32:17.256Z,0.80
2022-09-29T19:35:07.031Z,0.82
2022-09-29T19:37:55.853Z,0.80
2022-09-29T19:40:46.795Z,0.77
2022-09-29T19:43:35.202Z,0.90
2022-09-29T19:46:23.769Z,0.68
2022-09-29T19:49:12.307Z,0.88
2022-09-29T19:51:59.805Z,0.70
2022-09-29T19:54:48.285Z,0.65
2022-09-29T19:57:41.064Z,0.65
2022-09-29T20:00:29.559Z,0.82
2022-09-29T20:03:18.298Z,0.60
2022-09-29T20:06:07.509Z,0.40
2022-09-29T20:08:56.081Z,0.60
2022-09-29T20:11:47.038Z,0.80
2022-09-29T20:14:39.747Z,0.50
2022-09-29T20:17:28.259Z,0.70
2022-09-29T20:20:17.507Z,0.85
2022-09-29T20:23:06.064Z,0.70
2022-09-29T20:26:01.489Z,0.40
2022-09-29T20:28:50.546Z,0.60
2022-09-29T20:31:41.168Z,0.63
2022-09-29T20:34:29.765Z,0.43
2022-09-29T20:37:18.217Z,0.90
2022-09-29T20:40:08.175Z,0.40
2022-09-29T20:42:56.716Z,0.50
2022-09-29T20:45:45.200Z,0.90
2022-09-29T20:48:39.165Z,0.88
2022-09-29T20:51:29.156Z,1.05
2022-09-29T20:54:17.699Z,0.63
2022-09-29T20:57:06.126Z,0.50
2022-09-29T20:59:55.590Z,0.50
2022-09-29T21:02:44.040Z,0.45
2022-09-29T21:05:33.874Z,0.52
2022-09-29T21:08:22.309Z,0.65
2022-09-29T21:11:11.983Z,0.50
2022-09-29T21:14:00.379Z,0.50
2022-09-29T21:16:51.184Z,0.70
2022-09-29T21:19:41.806Z,0.50
2022-09-29T21:22:31.603Z,0.50
2022-09-29T21:25:20.023Z,1.00
2022-09-29T21:28:09.165Z,0.47
2022-09-29T21:31:04.761Z,0.60
2022-09-29T21:33:55.942Z,0.40
2022-09-29T21:36:44.457Z,0.25
2022-09-29T21:39:34.332Z,0.50
2022-09-29T21:42:22.810Z,0.32
2022-09-29T21:45:11.868Z,0.38
2022-09-29T21:48:09.177Z,0.43
2022-09-29T21:51:04.071Z,0.50
2022-09-29T21:53:53.202Z,0.25
2022-09-29T21:56:44.321Z,0.40
2022-09-29T21:59:32.759Z,0.30
2022-09-29T22:02:21.383Z,0.40
2022-09-29T22:05:10.663Z,0.40
2022-09-29T22:07:59.645Z,0.43
2022-09-29T22:10:50.189Z,0.50
2022-09-29T22:13:40.034Z,0.50
2022-09-29T22:16:30.578Z,0.20
2022-09-29T22:19:32.844Z,0.35
2022-09-29T22:22:21.335Z,0.35
2022-09-29T22:25:10.114Z,0.40
2022-09-29T22:27:58.912Z,0.30
2022-09-29T22:30:48.723Z,0.35
2022-09-29T22:33:37.610Z,0.20
2022-09-29T22:36:26.789Z,0.30
2022-09-29T22:39:15.747Z,0.30
2022-09-29T22:42:04.275Z,0.43
2022-09-29T22:44:52.716Z,0.30
2022-09-29T22:47:42.865Z,0.30
2022-09-29T22:50:32.420Z,0.30
2022-09-29T22:53:20.908Z,0.25
2022-09-29T22:56:12.250Z,0.50
2022-09-29T22:59:02.395Z,0.15
2022-09-29T23:01:51.153Z,0.20
2022-09-29T23:04:41.006Z,0.35
2022-09-29T23:07:29.606Z,0.17
2022-09-29T23:10:18.235Z,0.25
2022-09-29T23:13:08.068Z,0.20
2022-09-29T23:15:56.514Z,0.10
2022-09-29T23:18:47.279Z,0.30
2022-09-29T23:21:37.113Z,0.17
2022-09-29T23:24:27.069Z,0.20
2022-09-29T23:27:15.563Z,0.30
2022-09-29T23:30:04.111Z,0.20
2022-09-29T23:32:54.274Z,0.30
2022-09-29T23:35:42.703Z,0.20
2022-09-29T23:38:50.349Z,0.32
2022-09-29T23:41:39.750Z,0.20
2022-09-29T23:44:30.295Z,0.20
2022-09-29T23:47:18.807Z,0.30
2022-09-29T23:50:08.071Z,0.10
2022-09-29T23:52:56.688Z,0.20
2022-09-29T23:55:46.562Z,0.28
2022-09-29T23:58:35.108Z,0.20
